Time;durP1;ratioP1;P1;durP2;ratioP2;P2;SDS_P1;SDS_P2;PMS_P1;PMS_P2;Temp;Humidity;BMP_temperature;BMP_pressure;BME280_temperature;BME280_humidity;BME280_pressure;Samples;Min_cycle;Max_cycle;Signal;HPM_P1;HPM_P2
2023/04/20 00:00:40;;;;;;;6.03;4.10;;;9.80;72.40;;;;;;5015488;28;20647;-77
2023/04/20 00:03:06;;;;;;;4.23;3.80;;;9.70;72.90;;;;;;5019588;28;20653;-77
2023/04/20 00:05:32;;;;;;;5.03;4.20;;;9.70;72.50;;;;;;5017030;28;20508;-77
2023/04/20 00:07:58;;;;;;;4.90;3.97;;;10.00;72.30;;;;;;5018864;28;20876;-77
2023/04/20 00:10:23;;;;;;;6.70;4.10;;;9.80;72.90;;;;;;5018485;28;20626;-77
2023/04/20 00:12:49;;;;;;;5.30;3.83;;;9.80;72.60;;;;;;5017754;28;20655;-77
2023/04/20 00:15:15;;;;;;;6.17;4.07;;;9.80;72.40;;;;;;5020224;28;20429;-77
2023/04/20 00:17:41;;;;;;;6.10;3.70;;;9.80;72.50;;;;;;5025483;28;20190;-77
2023/04/20 00:20:08;;;;;;;5.43;3.90;;;9.70;72.00;;;;;;5010264;28;20186;-77
2023/04/20 00:22:34;;;;;;;4.33;3.60;;;9.80;72.30;;;;;;5010180;28;20218;-75
2023/04/20 00:25:00;;;;;;;6.60;4.47;;;9.70;72.60;;;;;;5009857;28;20856;-76
2023/04/20 00:27:26;;;;;;;5.77;3.40;;;9.70;72.10;;;;;;5011209;28;20476;-76
2023/04/20 00:29:52;;;;;;;4.20;3.80;;;9.80;72.00;;;;;;5009792;28;20202;-76
2023/04/20 00:32:18;;;;;;;4.80;3.57;;;9.70;72.00;;;;;;5011499;28;20774;-77
2023/04/20 00:34:43;;;;;;;5.27;3.83;;;9.70;72.40;;;;;;4993303;28;20274;-77
2023/04/20 00:37:09;;;;;;;6.53;4.53;;;9.70;72.90;;;;;;5011129;28;20234;-76
2023/04/20 00:39:35;;;;;;;5.07;3.50;;;9.60;73.60;;;;;;5010902;28;20612;-77
2023/04/20 00:42:07;;;;;;;4.03;3.67;;;9.60;72.80;;;;;;5011129;28;20675;-77
2023/04/20 00:44:33;;;;;;;4.60;3.93;;;9.60;73.10;;;;;;5010687;28;20647;-77
2023/04/20 00:47:00;;;;;;;4.20;3.80;;;9.60;72.90;;;;;;5010888;28;20502;-77
2023/04/20 00:49:28;;;;;;;6.63;4.00;;;9.60;73.10;;;;;;5009494;28;20426;-76
2023/04/20 00:51:56;;;;;;;6.03;4.30;;;9.50;73.30;;;;;;5009663;28;20839;-77
2023/04/20 00:54:22;;;;;;;8.23;3.80;;;9.40;73.60;;;;;;5009557;28;20520;-76
2023/04/20 00:56:48;;;;;;;4.90;3.97;;;9.40;73.10;;;;;;5010776;28;20505;-76
2023/04/20 00:59:14;;;;;;;7.43;3.80;;;9.00;73.00;;;;;;5011060;28;20558;-77
2023/04/20 01:01:40;;;;;;;7.60;4.10;;;9.40;73.70;;;;;;5009374;28;20430;-76
2023/04/20 01:04:06;;;;;;;4.40;3.60;;;9.30;73.60;;;;;;5010548;28;20974;-76
2023/04/20 01:06:32;;;;;;;4.93;3.60;;;9.30;74.00;;;;;;5025704;28;20195;-75
2023/04/20 01:08:58;;;;;;;4.70;3.47;;;9.30;74.40;;;;;;5009101;28;20410;-77
2023/04/20 01:11:23;;;;;;;5.17;3.83;;;9.30;73.90;;;;;;5010240;28;20221;-77
2023/04/20 01:13:49;;;;;;;5.50;3.63;;;9.20;74.10;;;;;;5010460;28;20261;-77
2023/04/20 01:16:15;;;;;;;7.63;4.07;;;9.20;74.50;;;;;;5010963;28;20195;-77
2023/04/20 01:18:47;;;;;;;4.50;4.07;;;9.20;74.30;;;;;;5009348;28;20187;-76
2023/04/20 01:21:13;;;;;;;6.80;4.60;;;9.10;74.50;;;;;;5010700;28;20203;-77
2023/04/20 01:23:39;;;;;;;5.20;3.90;;;9.20;75.00;;;;;;5009858;28;20458;-77
2023/04/20 01:26:09;;;;;;;6.00;4.17;;;9.20;75.20;;;;;;5010573;28;20771;-76
2023/04/20 01:28:35;;;;;;;5.50;3.70;;;9.10;75.50;;;;;;5010747;28;20513;-77
2023/04/20 01:31:05;;;;;;;4.47;3.90;;;9.00;75.20;;;;;;5010159;28;20491;-76
2023/04/20 01:33:32;;;;;;;6.97;4.20;;;9.10;76.00;;;;;;5010201;28;20550;-76
2023/04/20 01:35:57;;;;;;;7.50;4.30;;;9.00;75.70;;;;;;5009077;28;20472;-76
2023/04/20 01:38:24;;;;;;;7.50;4.00;;;9.10;76.90;;;;;;5009982;28;20934;-76
2023/04/20 01:40:50;;;;;;;4.70;4.10;;;9.10;76.60;;;;;;5010003;28;20447;-77
2023/04/20 01:43:16;;;;;;;4.13;3.53;;;9.00;76.80;;;;;;5009807;28;20838;-76
2023/04/20 01:45:42;;;;;;;6.63;3.70;;;9.10;77.00;;;;;;4990201;28;20525;-77
2023/04/20 01:48:08;;;;;;;6.03;4.27;;;9.00;77.30;;;;;;4990180;28;20506;-77
2023/04/20 01:50:33;;;;;;;4.90;3.97;;;9.20;77.40;;;;;;4989949;28;20211;-76
2023/04/20 01:52:59;;;;;;;4.07;3.47;;;9.00;77.20;;;;;;4972444;28;20187;-75
2023/04/20 01:55:25;;;;;;;4.17;3.43;;;9.10;77.30;;;;;;4988742;28;20287;-77
2023/04/20 01:57:51;;;;;;;4.13;3.20;;;9.20;77.90;;;;;;4989942;28;20450;-77
2023/04/20 02:00:17;;;;;;;4.73;3.70;;;9.00;77.80;;;;;;4990138;28;20231;-77
2023/04/20 02:02:42;;;;;;;4.30;3.33;;;9.00;78.10;;;;;;4990185;28;20215;-76
2023/04/20 02:05:08;;;;;;;5.17;3.70;;;9.00;78.10;;;;;;4989065;28;20780;-76
2023/04/20 02:07:34;;;;;;;4.50;3.93;;;9.00;78.50;;;;;;4990125;28;20550;-75
2023/04/20 02:10:00;;;;;;;3.97;3.30;;;9.00;79.20;;;;;;4990259;28;20414;-77
2023/04/20 02:12:25;;;;;;;6.53;3.40;;;9.20;79.70;;;;;;5000635;28;20251;-77
2023/04/20 02:14:51;;;;;;;5.47;3.00;;;9.10;80.30;;;;;;5009744;28;20168;-77
2023/04/20 02:17:17;;;;;;;4.07;3.50;;;9.10;80.90;;;;;;5009653;28;20183;-76
2023/04/20 02:19:43;;;;;;;4.50;4.03;;;9.20;81.90;;;;;;5008651;28;20222;-76
2023/04/20 02:22:08;;;;;;;4.20;3.77;;;9.00;82.50;;;;;;5009727;28;20215;-76
2023/04/20 02:24:34;;;;;;;6.07;3.50;;;9.10;82.80;;;;;;5009529;28;20455;-77
2023/04/20 02:27:00;;;;;;;3.77;3.43;;;9.20;83.50;;;;;;4992006;28;20186;-77
2023/04/20 02:29:26;;;;;;;4.70;3.83;;;9.20;84.10;;;;;;5009828;28;20182;-77
2023/04/20 02:31:51;;;;;;;5.33;3.67;;;9.10;85.10;;;;;;5008641;28;20295;-77
2023/04/20 02:34:17;;;;;;;4.50;3.70;;;9.00;85.60;;;;;;5009329;28;20186;-76
2023/04/20 02:36:43;;;;;;;4.60;3.50;;;9.10;86.90;;;;;;5008720;28;20175;-77
2023/04/20 02:39:09;;;;;;;4.50;3.50;;;9.00;87.10;;;;;;5009495;28;20202;-77
2023/04/20 02:41:34;;;;;;;3.93;3.10;;;9.00;88.10;;;;;;5024865;28;20234;-77
2023/04/20 02:44:00;;;;;;;4.10;3.43;;;9.00;89.40;;;;;;5021915;28;20482;-77
2023/04/20 02:46:26;;;;;;;5.37;3.73;;;9.00;90.00;;;;;;4994170;28;20183;-77
2023/04/20 02:48:51;;;;;;;4.00;3.27;;;9.10;90.40;;;;;;4990391;28;20172;-76
2023/04/20 02:51:17;;;;;;;5.43;4.00;;;8.90;90.90;;;;;;4988599;28;20203;-76
2023/04/20 02:53:43;;;;;;;5.53;3.60;;;9.00;91.70;;;;;;4988626;28;20222;-77
2023/04/20 02:56:09;;;;;;;6.77;3.70;;;9.00;92.50;;;;;;4988915;28;20184;-77
2023/04/20 02:58:35;;;;;;;4.77;4.00;;;9.00;93.10;;;;;;4989497;28;20473;-76
2023/04/20 03:01:01;;;;;;;6.90;3.87;;;9.10;94.00;;;;;;4989752;28;20435;-77
2023/04/20 03:03:28;;;;;;;6.00;4.00;;;9.00;94.10;;;;;;4989721;28;20286;-77
2023/04/20 03:05:54;;;;;;;5.53;3.80;;;8.90;94.50;;;;;;5005637;28;20262;-77
2023/04/20 03:08:20;;;;;;;8.13;4.37;;;8.90;94.90;;;;;;4989554;28;20497;-77
2023/04/20 03:10:46;;;;;;;4.60;3.97;;;9.10;95.30;;;;;;4989029;28;20431;-76
2023/04/20 03:13:12;;;;;;;6.30;3.60;;;8.90;95.80;;;;;;5005903;28;20418;-77
2023/04/20 03:15:37;;;;;;;4.27;3.87;;;9.00;96.20;;;;;;5009219;28;20175;-76
2023/04/20 03:18:03;;;;;;;5.33;4.30;;;8.90;96.80;;;;;;5008923;28;20234;-76
2023/04/20 03:20:29;;;;;;;5.50;4.10;;;9.00;97.80;;;;;;5008736;28;20199;-76
2023/04/20 03:22:55;;;;;;;5.33;3.80;;;9.10;98.40;;;;;;5008726;28;20696;-76
2023/04/20 03:25:21;;;;;;;6.50;4.73;;;9.00;99.10;;;;;;5008708;28;20432;-76
2023/04/20 03:27:47;;;;;;;5.00;4.03;;;9.10;99.60;;;;;;5023810;28;20723;-76
2023/04/20 03:30:14;;;;;;;9.77;4.53;;;8.90;99.90;;;;;;5008474;28;20517;-76
2023/04/20 03:32:40;;;;;;;6.57;5.10;;;9.00;99.90;;;;;;5008561;28;20422;-77
2023/04/20 03:35:07;;;;;;;6.63;4.77;;;9.10;99.90;;;;;;5008494;28;20402;-77
2023/04/20 03:37:35;;;;;;;5.17;4.67;;;9.00;99.90;;;;;;5008358;28;20429;-77
2023/04/20 03:40:01;;;;;;;7.50;5.13;;;9.00;99.90;;;;;;5007319;28;20746;-76
2023/04/20 03:42:27;;;;;;;5.53;4.93;;;9.00;99.90;;;;;;5008605;28;20477;-77
2023/04/20 03:44:52;;;;;;;5.23;4.73;;;9.00;99.90;;;;;;4995169;28;20250;-77
2023/04/20 03:47:18;;;;;;;5.60;5.00;;;9.00;99.90;;;;;;5004646;28;20646;-76
2023/04/20 03:49:44;;;;;;;6.20;5.60;;;9.20;99.90;;;;;;4992685;28;20254;-76
2023/04/20 03:52:09;;;;;;;6.70;5.50;;;9.10;99.90;;;;;;4992995;28;20192;-77
2023/04/20 03:54:35;;;;;;;6.83;5.20;;;8.90;99.90;;;;;;4992799;28;20187;-77
2023/04/20 03:57:01;;;;;;;6.70;5.90;;;9.00;99.90;;;;;;4992711;28;20262;-76
2023/04/20 03:59:27;;;;;;;6.90;5.43;;;9.10;99.90;;;;;;4991004;28;20219;-76
2023/04/20 04:01:53;;;;;;;7.87;6.00;;;9.00;99.90;;;;;;5006296;28;20226;-76
2023/04/20 04:04:19;;;;;;;5.77;5.13;;;8.80;99.90;;;;;;4991963;28;20474;-77
2023/04/20 04:06:44;;;;;;;7.53;5.70;;;8.80;99.90;;;;;;4991922;28;20411;-76
2023/04/20 04:09:10;;;;;;;7.50;5.93;;;8.80;99.90;;;;;;4992013;28;20263;-76
2023/04/20 04:11:36;;;;;;;6.20;5.60;;;8.50;99.90;;;;;;5010606;28;20195;-77
2023/04/20 04:14:04;;;;;;;5.50;4.73;;;8.70;99.90;;;;;;5010038;28;20189;-77
2023/04/20 04:16:30;;;;;;;6.47;5.60;;;8.70;99.90;;;;;;5011494;28;20167;-76
2023/04/20 04:18:56;;;;;;;9.37;5.63;;;8.90;99.90;;;;;;5009871;28;20414;-77
2023/04/20 04:21:22;;;;;;;5.50;5.00;;;8.70;99.90;;;;;;5010983;28;20997;-76
2023/04/20 04:23:48;;;;;;;8.23;5.20;;;8.80;99.90;;;;;;5009662;28;20471;-76
2023/04/20 04:26:14;;;;;;;10.93;5.47;;;9.00;99.90;;;;;;5011380;28;20258;-77
2023/04/20 04:28:40;;;;;;;5.60;5.10;;;8.90;99.90;;;;;;5009804;28;20937;-76
2023/04/20 04:31:07;;;;;;;6.23;5.60;;;9.10;99.90;;;;;;5010906;28;20441;-77
2023/04/20 04:33:33;;;;;;;7.10;5.57;;;8.90;99.90;;;;;;5010735;28;20262;-76
2023/04/20 04:36:00;;;;;;;5.67;4.67;;;8.90;99.90;;;;;;5011042;28;20421;-77
2023/04/20 04:38:26;;;;;;;7.70;5.90;;;8.80;99.90;;;;;;5010639;28;20488;-77
2023/04/20 04:40:52;;;;;;;5.30;4.40;;;8.80;99.90;;;;;;5010988;28;20504;-76
2023/04/20 04:43:19;;;;;;;6.13;5.00;;;8.80;99.90;;;;;;5010208;28;20462;-76
2023/04/20 04:45:45;;;;;;;7.53;5.33;;;8.80;99.90;;;;;;4991350;28;20781;-77
2023/04/20 04:48:11;;;;;;;7.10;4.73;;;8.90;99.90;;;;;;4989803;28;20411;-76
2023/04/20 04:50:40;;;;;;;5.47;4.77;;;8.90;99.90;;;;;;4989858;28;20207;-76
2023/04/20 04:53:06;;;;;;;9.17;5.43;;;9.00;99.90;;;;;;4990869;28;20427;-76
2023/04/20 04:55:32;;;;;;;5.10;4.60;;;8.90;99.90;;;;;;5006097;28;20420;-76
2023/04/20 04:57:58;;;;;;;5.73;5.17;;;8.80;99.90;;;;;;5006140;28;20799;-76
2023/04/20 05:00:25;;;;;;;5.93;5.33;;;8.80;99.90;;;;;;5015057;28;20432;-76
2023/04/20 05:02:54;;;;;;;5.30;4.80;;;8.90;99.90;;;;;;5021564;28;20726;-76
2023/04/20 05:05:20;;;;;;;7.60;4.93;;;8.50;99.90;;;;;;5021573;28;20449;-76
2023/04/20 05:07:46;;;;;;;6.20;5.13;;;8.80;99.90;;;;;;5024662;28;20413;-76
2023/04/20 05:10:12;;;;;;;7.20;5.53;;;8.90;99.90;;;;;;5029994;28;20808;-76
2023/04/20 05:12:38;;;;;;;7.17;6.40;;;8.90;99.90;;;;;;5017908;28;20691;-76
2023/04/20 05:15:05;;;;;;;6.60;5.00;;;8.70;99.90;;;;;;5010547;28;20191;-76
2023/04/20 05:17:31;;;;;;;5.83;5.27;;;8.80;99.90;;;;;;5009132;28;20422;-76
2023/04/20 05:19:56;;;;;;;7.30;5.97;;;8.80;99.90;;;;;;5008754;28;20855;-76
2023/04/20 05:22:22;;;;;;;5.90;5.17;;;8.70;99.90;;;;;;5009926;28;20187;-77
2023/04/20 05:24:48;;;;;;;8.20;5.80;;;8.70;99.90;;;;;;5025097;28;20652;-77
2023/04/20 05:27:13;;;;;;;6.50;5.23;;;8.60;99.90;;;;;;5024323;28;20233;-76
2023/04/20 05:29:39;;;;;;;10.20;5.63;;;9.00;99.90;;;;;;5009081;28;20226;-77
2023/04/20 05:32:05;;;;;;;7.17;6.47;;;8.70;99.90;;;;;;5014499;28;20214;-76
2023/04/20 05:34:31;;;;;;;9.87;5.70;;;8.80;99.90;;;;;;5015787;28;20182;-76
2023/04/20 05:36:58;;;;;;;9.40;5.57;;;8.50;99.90;;;;;;5021682;28;20423;-76
2023/04/20 05:39:23;;;;;;;7.03;5.87;;;8.50;99.90;;;;;;5029423;28;20197;-76
2023/04/20 05:41:49;;;;;;;7.80;5.90;;;8.60;99.90;;;;;;5029467;28;20433;-76
2023/04/20 05:44:15;;;;;;;6.03;5.47;;;8.60;99.90;;;;;;5021263;28;20203;-77
2023/04/20 05:46:40;;;;;;;7.20;6.50;;;8.80;99.90;;;;;;5009643;28;20176;-76
2023/04/20 05:49:06;;;;;;;7.97;6.20;;;8.60;99.90;;;;;;5009385;28;20182;-76
2023/04/20 05:51:33;;;;;;;7.13;5.67;;;8.60;99.90;;;;;;5009396;28;20635;-76
2023/04/20 05:54:00;;;;;;;6.37;5.77;;;8.60;99.90;;;;;;5008768;28;20425;-76
2023/04/20 05:56:26;;;;;;;8.03;6.80;;;8.60;99.90;;;;;;5011518;28;20198;-77
2023/04/20 05:58:53;;;;;;;7.00;6.40;;;8.70;99.90;;;;;;5013313;28;20416;-77
2023/04/20 06:01:19;;;;;;;8.33;7.53;;;8.60;99.90;;;;;;5025795;28;20494;-76
2023/04/20 06:03:46;;;;;;;7.63;6.83;;;8.60;99.90;;;;;;5005580;28;20473;-77
2023/04/20 06:06:11;;;;;;;7.43;6.40;;;8.50;99.90;;;;;;5000148;28;20186;-77
2023/04/20 06:08:37;;;;;;;9.03;7.00;;;8.50;99.90;;;;;;5021121;28;20967;-77
2023/04/20 06:11:03;;;;;;;6.97;6.27;;;8.60;99.90;;;;;;5027469;28;20228;-77
2023/04/20 06:13:29;;;;;;;6.97;6.37;;;8.50;99.90;;;;;;5009662;28;20453;-77
2023/04/20 06:15:54;;;;;;;8.97;7.30;;;8.70;99.90;;;;;;5009249;28;20422;-77
2023/04/20 06:18:20;;;;;;;8.30;7.40;;;8.40;99.90;;;;;;5007648;28;20194;-76
2023/04/20 06:20:46;;;;;;;7.40;6.70;;;8.50;99.90;;;;;;5014419;28;20589;-77
2023/04/20 06:23:11;;;;;;;7.70;6.90;;;8.50;99.90;;;;;;5018660;28;20217;-76
2023/04/20 06:25:37;;;;;;;9.43;6.83;;;8.50;99.90;;;;;;5027286;28;20752;-76
2023/04/20 06:28:04;;;;;;;8.87;6.73;;;8.60;99.90;;;;;;5026293;28;20193;-77
2023/04/20 06:30:31;;;;;;;7.17;6.47;;;8.50;99.90;;;;;;5016970;28;20456;-76
2023/04/20 06:32:57;;;;;;;8.07;7.27;;;8.50;99.90;;;;;;5007901;28;20862;-76
2023/04/20 06:35:23;;;;;;;7.07;6.37;;;8.40;99.90;;;;;;5007225;28;20460;-76
2023/04/20 06:37:48;;;;;;;7.27;6.67;;;8.40;99.90;;;;;;5008638;28;20241;-76
2023/04/20 06:40:14;;;;;;;8.90;7.60;;;8.60;99.90;;;;;;5008847;28;20616;-76
2023/04/20 06:42:40;;;;;;;8.80;7.60;;;8.40;99.90;;;;;;5008732;28;20197;-76
2023/04/20 06:45:06;;;;;;;8.17;7.37;;;8.30;99.90;;;;;;5009098;28;20184;-76
2023/04/20 06:47:33;;;;;;;12.07;8.57;;;8.30;99.90;;;;;;4987885;28;20190;-76
2023/04/20 06:50:00;;;;;;;9.43;7.77;;;8.30;99.90;;;;;;5003954;28;20422;-76
2023/04/20 06:52:26;;;;;;;9.97;7.93;;;8.40;99.90;;;;;;4988033;28;20455;-76
2023/04/20 06:54:52;;;;;;;10.87;9.73;;;8.40;99.90;;;;;;4988854;28;20483;-76
2023/04/20 06:57:18;;;;;;;8.10;7.17;;;8.50;99.90;;;;;;4989139;28;20490;-76
2023/04/20 06:59:44;;;;;;;7.53;6.83;;;8.60;99.90;;;;;;4988080;28;20186;-76
2023/04/20 07:02:09;;;;;;;8.10;7.10;;;8.50;99.90;;;;;;4989148;28;20207;-77
2023/04/20 07:04:35;;;;;;;8.00;7.20;;;8.50;99.90;;;;;;4988965;28;20840;-76
2023/04/20 07:07:01;;;;;;;8.60;7.80;;;8.50;99.90;;;;;;4987590;28;20641;-76
2023/04/20 07:09:26;;;;;;;8.10;6.13;;;8.50;99.90;;;;;;4988854;28;20660;-76
2023/04/20 07:11:52;;;;;;;8.87;7.80;;;8.60;99.90;;;;;;5013921;28;20207;-76
2023/04/20 07:14:18;;;;;;;8.30;7.10;;;8.70;99.90;;;;;;5018830;28;20191;-76
2023/04/20 07:16:43;;;;;;;7.70;7.00;;;8.50;99.90;;;;;;5019379;28;20183;-77
2023/04/20 07:19:09;;;;;;;10.43;7.33;;;8.40;99.90;;;;;;5023535;28;20186;-76
2023/04/20 07:21:35;;;;;;;9.80;7.17;;;8.50;99.90;;;;;;5015133;28;20214;-76
2023/04/20 07:24:01;;;;;;;8.63;7.47;;;8.50;99.90;;;;;;5020075;28;20692;-76
2023/04/20 07:26:27;;;;;;;7.03;6.33;;;8.50;99.90;;;;;;5022379;28;20182;-76
2023/04/20 07:28:52;;;;;;;8.27;7.20;;;8.30;99.90;;;;;;5031789;28;20780;-76
2023/04/20 07:31:18;;;;;;;8.43;7.10;;;8.40;99.90;;;;;;5022711;28;20576;-76
2023/04/20 07:33:44;;;;;;;11.00;7.70;;;8.50;99.90;;;;;;5017735;28;20210;-76
2023/04/20 07:36:10;;;;;;;9.00;8.10;;;8.50;99.90;;;;;;5030006;28;20194;-76
2023/04/20 07:38:36;;;;;;;8.10;7.30;;;8.50;99.90;;;;;;5031478;28;20198;-76
2023/04/20 07:41:02;;;;;;;10.00;7.57;;;8.60;99.90;;;;;;5031505;28;20206;-76
2023/04/20 07:43:28;;;;;;;9.20;8.30;;;8.30;99.90;;;;;;5028559;28;20321;-76
2023/04/20 07:45:54;;;;;;;8.37;7.50;;;8.50;99.90;;;;;;5010357;28;20553;-76
2023/04/20 07:48:19;;;;;;;12.30;7.77;;;8.50;99.90;;;;;;5023591;28;20420;-76
2023/04/20 07:50:45;;;;;;;8.73;7.30;;;8.40;99.90;;;;;;5026000;28;20268;-77
2023/04/20 07:53:11;;;;;;;7.87;7.07;;;8.50;99.90;;;;;;5031343;28;20186;-76
2023/04/20 07:55:37;;;;;;;8.97;7.97;;;8.40;99.90;;;;;;5023514;28;20233;-76
2023/04/20 07:58:03;;;;;;;10.27;8.13;;;8.50;99.90;;;;;;5022340;28;20427;-76
2023/04/20 08:00:29;;;;;;;10.10;8.33;;;8.50;99.90;;;;;;5018669;28;21681;-76
2023/04/20 08:02:54;;;;;;;11.30;8.13;;;8.50;99.90;;;;;;5019470;28;20234;-76
2023/04/20 08:05:21;;;;;;;12.33;8.10;;;8.50;99.90;;;;;;5029444;28;20421;-76
2023/04/20 08:07:46;;;;;;;9.00;8.07;;;8.50;99.90;;;;;;5031169;28;20180;-77
2023/04/20 08:10:12;;;;;;;8.87;7.90;;;8.50;99.90;;;;;;5024614;28;20536;-76
2023/04/20 08:12:39;;;;;;;9.30;7.63;;;8.50;99.90;;;;;;5021725;28;20190;-76
2023/04/20 08:15:05;;;;;;;8.90;7.87;;;8.40;99.90;;;;;;5011386;28;20274;-76
2023/04/20 08:17:34;;;;;;;8.63;7.60;;;8.50;99.90;;;;;;5010100;28;20437;-77
2023/04/20 08:20:00;;;;;;;9.53;8.13;;;8.40;99.90;;;;;;5011199;28;20464;-77
2023/04/20 08:22:28;;;;;;;8.67;7.63;;;8.40;99.90;;;;;;5018698;28;20453;-77
2023/04/20 08:24:57;;;;;;;9.23;8.33;;;8.40;99.90;;;;;;5026677;28;20452;-76
2023/04/20 08:27:23;;;;;;;8.80;7.77;;;8.50;99.90;;;;;;5030763;28;20479;-76
2023/04/20 08:29:49;;;;;;;10.10;7.97;;;8.50;99.90;;;;;;5027976;28;20458;-76
2023/04/20 08:32:17;;;;;;;8.40;7.60;;;8.50;99.90;;;;;;5016194;28;20426;-77
2023/04/20 08:34:43;;;;;;;11.10;7.60;;;8.40;99.90;;;;;;5021188;28;20189;-77
2023/04/20 08:37:09;;;;;;;9.73;8.70;;;8.50;99.90;;;;;;5017760;28;20456;-75
2023/04/20 08:39:35;;;;;;;10.20;8.97;;;8.50;99.90;;;;;;5016561;28;20441;-76
2023/04/20 08:42:01;;;;;;;9.90;8.90;;;8.70;99.90;;;;;;5006209;28;20213;-76
2023/04/20 08:44:27;;;;;;;10.60;9.50;;;8.60;99.90;;;;;;5025624;28;20473;-77
2023/04/20 08:46:53;;;;;;;10.20;9.10;;;8.60;99.90;;;;;;5011182;28;20438;-76
2023/04/20 08:49:20;;;;;;;9.70;8.70;;;8.60;99.90;;;;;;5020356;28;20193;-76
2023/04/20 08:51:47;;;;;;;9.67;8.70;;;8.50;99.90;;;;;;5022253;28;20622;-77
2023/04/20 08:54:14;;;;;;;11.30;8.70;;;8.50;99.90;;;;;;5018823;28;20526;-77
2023/04/20 08:56:44;;;;;;;11.33;9.03;;;8.50;99.90;;;;;;5011083;28;20798;-77
2023/04/20 08:59:12;;;;;;;8.70;7.73;;;8.80;99.90;;;;;;5011054;28;20426;-76
2023/04/20 09:01:40;;;;;;;9.10;7.50;;;8.80;99.90;;;;;;5010614;28;20474;-76
2023/04/20 09:04:15;;;;;;;6.97;6.20;;;8.80;99.90;;;;;;5008848;28;20466;-76
2023/04/20 09:06:51;;;;;;;6.70;6.10;;;8.70;99.90;;;;;;5010883;28;20417;-76
2023/04/20 09:09:19;;;;;;;6.60;5.90;;;8.80;99.90;;;;;;5010103;28;20970;-76
2023/04/20 09:11:44;;;;;;;5.80;5.20;;;8.90;99.90;;;;;;5010737;28;20872;-76
2023/04/20 09:14:13;;;;;;;5.57;5.07;;;9.00;99.90;;;;;;5010874;28;20448;-76
2023/04/20 09:16:50;;;;;;;5.80;5.20;;;9.10;99.90;;;;;;5026677;28;21254;-76
2023/04/20 09:19:22;;;;;;;6.83;6.13;;;9.10;99.90;;;;;;5010875;28;20414;-76
2023/04/20 09:21:49;;;;;;;8.23;6.00;;;9.20;99.90;;;;;;5010554;28;20853;-76
2023/04/20 09:24:15;;;;;;;8.63;6.60;;;9.40;99.90;;;;;;5006180;28;20461;-76
2023/04/20 09:26:41;;;;;;;7.67;6.87;;;9.20;99.90;;;;;;5010255;28;20560;-76
2023/04/20 09:29:18;;;;;;;7.47;6.73;;;9.10;99.90;;;;;;5008795;28;20254;-76
2023/04/20 09:31:44;;;;;;;7.10;6.33;;;9.10;99.90;;;;;;5010022;28;20237;-76
2023/04/20 09:34:11;;;;;;;7.10;5.83;;;9.30;99.90;;;;;;5009746;28;20473;-76
2023/04/20 09:36:38;;;;;;;6.80;6.10;;;9.20;99.90;;;;;;5009942;28;20179;-76
2023/04/20 09:39:10;;;;;;;7.17;6.47;;;9.30;99.90;;;;;;5009722;28;20470;-76
2023/04/20 09:41:37;;;;;;;7.00;6.30;;;9.20;99.90;;;;;;5008557;28;20442;-75
2023/04/20 09:44:03;;;;;;;8.00;7.17;;;9.40;99.90;;;;;;5009610;28;20613;-76
2023/04/20 09:46:30;;;;;;;7.43;6.73;;;9.40;99.90;;;;;;5009527;28;20418;-76
2023/04/20 09:49:01;;;;;;;8.10;7.03;;;9.40;99.90;;;;;;5009659;28;20476;-76
2023/04/20 09:51:28;;;;;;;8.53;6.13;;;9.40;99.90;;;;;;5009631;28;20796;-75
2023/04/20 09:53:59;;;;;;;7.97;7.23;;;9.50;99.90;;;;;;5009481;28;20418;-76
2023/04/20 09:56:26;;;;;;;7.53;6.70;;;9.30;99.90;;;;;;5008489;28;20418;-76
2023/04/20 09:58:54;;;;;;;8.60;7.63;;;9.30;99.90;;;;;;5008368;28;20418;-75
2023/04/20 10:01:21;;;;;;;8.20;7.40;;;9.50;99.90;;;;;;5009560;28;20453;-76
2023/04/20 10:03:47;;;;;;;8.57;7.67;;;9.50;99.90;;;;;;5009223;28;20604;-76
2023/04/20 10:06:28;;;;;;;8.73;7.40;;;9.50;99.90;;;;;;5009566;28;20411;-76
2023/04/20 10:08:54;;;;;;;8.97;6.90;;;9.50;99.90;;;;;;5009338;28;20501;-76
2023/04/20 10:11:37;;;;;;;7.03;6.33;;;9.50;99.90;;;;;;5006558;28;20977;-76
2023/04/20 10:14:16;;;;;;;6.67;6.00;;;9.50;99.90;;;;;;5004653;28;20859;-76
2023/04/20 10:16:43;;;;;;;8.70;5.87;;;9.60;99.90;;;;;;5005186;28;20732;-76
2023/04/20 10:19:09;;;;;;;7.17;6.47;;;9.70;99.90;;;;;;5004890;28;20455;-75
2023/04/20 10:21:48;;;;;;;7.50;6.30;;;9.80;99.90;;;;;;5004668;28;20860;-76
2023/04/20 10:24:15;;;;;;;7.53;6.83;;;9.90;99.90;;;;;;4989439;28;20885;-76
2023/04/20 10:26:44;;;;;;;7.10;6.40;;;10.10;99.90;;;;;;4989761;28;20423;-75
2023/04/20 10:29:11;;;;;;;7.17;6.47;;;10.10;99.90;;;;;;5004890;28;20443;-76
2023/04/20 10:31:38;;;;;;;6.87;6.17;;;10.10;99.90;;;;;;4989290;28;20489;-75
2023/04/20 10:34:05;;;;;;;5.50;5.00;;;10.10;99.90;;;;;;4989267;28;20426;-75
2023/04/20 10:36:33;;;;;;;6.33;5.73;;;10.10;99.90;;;;;;4988375;28;20427;-76
2023/04/20 10:39:04;;;;;;;5.57;5.07;;;10.00;99.90;;;;;;4989285;28;20442;-75
2023/04/20 10:41:30;;;;;;;5.77;5.27;;;9.90;99.90;;;;;;5004418;28;20461;-75
2023/04/20 10:44:07;;;;;;;6.10;5.60;;;9.90;99.90;;;;;;4994458;28;20468;-76
2023/04/20 10:46:33;;;;;;;6.60;5.90;;;9.90;99.90;;;;;;5009084;28;20422;-75
2023/04/20 10:49:00;;;;;;;9.00;6.33;;;10.00;99.90;;;;;;5009057;28;20472;-76
2023/04/20 10:51:27;;;;;;;6.47;5.80;;;10.00;99.90;;;;;;5008901;28;20199;-76
2023/04/20 10:54:01;;;;;;;6.00;5.40;;;10.10;99.90;;;;;;5008882;28;20926;-76
2023/04/20 10:56:26;;;;;;;7.07;6.43;;;10.30;99.90;;;;;;5007802;28;20428;-76
2023/04/20 10:58:53;;;;;;;6.80;6.17;;;10.30;99.90;;;;;;5012817;28;20505;-76
2023/04/20 11:01:19;;;;;;;7.40;5.83;;;10.20;99.90;;;;;;5012857;28;20795;-76
2023/04/20 11:03:50;;;;;;;6.00;5.40;;;10.20;99.90;;;;;;5011586;28;20544;-76
2023/04/20 11:06:16;;;;;;;5.47;4.97;;;10.30;99.90;;;;;;5013380;28;20846;-76
2023/04/20 11:08:42;;;;;;;6.23;5.63;;;10.30;99.90;;;;;;5012819;28;20437;-76
2023/04/20 11:11:28;;;;;;;8.37;6.80;;;10.30;99.90;;;;;;5011398;28;20437;-75
2023/04/20 11:14:09;;;;;;;6.07;5.57;;;10.30;99.90;;;;;;4993160;28;20697;-76
2023/04/20 11:16:36;;;;;;;6.77;5.97;;;10.30;99.90;;;;;;4993121;28;20412;-76
2023/04/20 11:19:02;;;;;;;5.90;5.30;;;10.30;99.90;;;;;;4992919;28;20421;-76
2023/04/20 11:21:39;;;;;;;5.93;5.33;;;10.40;99.90;;;;;;4992890;28;20442;-76
2023/04/20 11:24:17;;;;;;;6.53;5.70;;;10.50;99.90;;;;;;4991328;28;20466;-75
2023/04/20 11:26:43;;;;;;;5.63;5.03;;;10.60;99.90;;;;;;4993097;28;21120;-76
2023/04/20 11:29:09;;;;;;;4.67;4.27;;;10.70;99.90;;;;;;4991418;28;20454;-75
2023/04/20 11:31:35;;;;;;;4.97;4.43;;;10.70;99.90;;;;;;4992478;28;20612;-76
2023/04/20 11:34:02;;;;;;;3.73;3.43;;;10.80;99.90;;;;;;4991236;28;20187;-76
2023/04/20 11:36:29;;;;;;;5.90;3.93;;;10.90;99.90;;;;;;4991735;28;20425;-76
2023/04/20 11:39:08;;;;;;;3.90;3.60;;;11.10;99.90;;;;;;4992428;28;20443;-76
2023/04/20 11:41:33;;;;;;;3.70;3.30;;;11.30;99.90;;;;;;4992302;28;20438;-76
2023/04/20 11:43:59;;;;;;;4.70;4.30;;;11.50;99.90;;;;;;4997858;28;20453;-76
2023/04/20 11:46:25;;;;;;;3.83;3.47;;;11.60;99.90;;;;;;5012001;28;20179;-76
2023/04/20 11:48:50;;;;;;;4.60;3.97;;;11.70;99.90;;;;;;5010799;28;20179;-76
2023/04/20 11:51:16;;;;;;;4.20;3.83;;;11.70;99.90;;;;;;5010496;28;20253;-76
2023/04/20 11:53:42;;;;;;;4.47;4.07;;;11.60;99.90;;;;;;5011664;28;20722;-76
2023/04/20 11:56:07;;;;;;;4.47;4.07;;;11.60;99.90;;;;;;5011797;28;20209;-76
2023/04/20 11:58:33;;;;;;;6.90;4.00;;;11.60;99.90;;;;;;5011722;28;20229;-76
2023/04/20 12:00:59;;;;;;;5.00;4.60;;;11.50;99.90;;;;;;5011511;28;20203;-76
2023/04/20 12:03:25;;;;;;;5.50;4.30;;;11.50;99.90;;;;;;5011465;28;20257;-76
2023/04/20 12:05:51;;;;;;;5.23;4.73;;;11.40;99.90;;;;;;5011678;28;20183;-76
2023/04/20 12:08:17;;;;;;;5.10;4.70;;;11.30;99.90;;;;;;5011400;28;20428;-75
2023/04/20 12:10:43;;;;;;;6.07;5.47;;;11.10;99.90;;;;;;5026670;28;20549;-76
2023/04/20 12:13:09;;;;;;;5.40;4.90;;;11.00;99.90;;;;;;5011130;28;20194;-76
2023/04/20 12:15:35;;;;;;;6.30;5.50;;;11.10;99.90;;;;;;5011469;28;20422;-76
2023/04/20 12:18:01;;;;;;;5.20;4.70;;;11.10;99.90;;;;;;5011311;28;20926;-76
2023/04/20 12:20:26;;;;;;;6.60;5.37;;;11.20;99.90;;;;;;5011307;28;20301;-76
2023/04/20 12:22:52;;;;;;;7.43;5.80;;;11.20;99.90;;;;;;5011239;28;20183;-75
2023/04/20 12:25:18;;;;;;;5.80;5.30;;;11.20;99.90;;;;;;5011482;28;20179;-76
2023/04/20 12:27:44;;;;;;;6.60;6.00;;;11.30;99.90;;;;;;5011149;28;20218;-76
2023/04/20 12:30:10;;;;;;;6.60;5.47;;;11.40;99.90;;;;;;5011026;28;20457;-76
2023/04/20 12:32:36;;;;;;;6.30;5.70;;;11.50;99.90;;;;;;5011061;28;20175;-76
2023/04/20 12:35:01;;;;;;;6.43;5.90;;;11.60;99.90;;;;;;5009617;28;20425;-75
2023/04/20 12:37:27;;;;;;;6.63;6.03;;;11.70;99.90;;;;;;5008834;28;20262;-75
2023/04/20 12:39:53;;;;;;;6.97;5.97;;;11.70;99.90;;;;;;5010945;28;20551;-75
2023/04/20 12:42:18;;;;;;;6.40;5.80;;;11.60;99.90;;;;;;5011203;28;20680;-76
2023/04/20 12:44:44;;;;;;;8.57;6.03;;;11.70;99.90;;;;;;4997635;28;20219;-76
2023/04/20 12:47:12;;;;;;;7.03;5.63;;;11.70;99.90;;;;;;4991189;28;20184;-76
2023/04/20 12:49:37;;;;;;;6.80;6.10;;;11.80;99.90;;;;;;5006270;28;20427;-76
2023/04/20 12:52:03;;;;;;;7.53;6.73;;;11.80;99.90;;;;;;4991071;28;20517;-76